Time;durP1;ratioP1;P1;durP2;ratioP2;P2;SDS_P1;SDS_P2;PMS_P1;PMS_P2;Temp;Humidity;BMP_temperature;BMP_pressure;BME280_temperature;BME280_humidity;BME280_pressure;Samples;Min_cycle;Max_cycle;Signal;HPM_P1;HPM_P2
2022/06/25 00:01:02;;;;;;;6.80;4.60;;;;;;100296.64;;;;102970;1323;23047;-37
2022/06/25 00:03:35;;;;;;;6.00;5.00;;;;;;100297.63;;;;102967;1330;22582;-37
2022/06/25 00:06:11;;;;;;;6.80;5.20;;;;;;100300.09;;;;102957;1332;22557;-37
2022/06/25 00:08:45;;;;;;;6.20;4.50;;;;;;100303.66;;;;102965;1328;22567;-36
2022/06/25 00:14:12;;;;;;;5.30;4.60;;;;;;100305.02;;;;103060;1327;24282;-37
2022/06/25 00:16:45;;;;;;;6.70;4.90;;;;;;100309.59;;;;102983;1333;22613;-36
2022/06/25 00:19:17;;;;;;;6.90;4.40;;;;;;100306.19;;;;102962;1325;22765;-36
2022/06/25 00:21:52;;;;;;;7.20;5.10;;;;;;100308.63;;;;102960;1331;22579;-36
2022/06/25 00:24:25;;;;;;;6.10;4.70;;;;;;100308.89;;;;102978;1329;22607;-37
2022/06/25 00:26:57;;;;;;;6.10;4.70;;;;;;100307.70;;;;102977;1328;25895;-36
2022/06/25 00:29:29;;;;;;;6.40;4.60;;;;;;100303.79;;;;102990;1331;22615;-36
2022/06/25 00:32:02;;;;;;;5.50;4.90;;;;;;100304.98;;;;102949;1329;22660;-37
2022/06/25 00:34:34;;;;;;;5.50;4.80;;;;;;100305.89;;;;102953;1331;23834;-37
2022/06/25 00:37:15;;;;;;;6.80;5.20;;;;;;100303.02;;;;102992;1325;22594;-36
2022/06/25 00:39:48;;;;;;;6.00;4.60;;;;;;100303.44;;;;102972;1329;22877;-37
2022/06/25 00:42:20;;;;;;;6.60;4.90;;;;;;100309.27;;;;102976;1319;24461;-37
2022/06/25 00:44:53;;;;;;;5.50;4.60;;;;;;100308.34;;;;102982;1331;22602;-37
2022/06/25 00:47:27;;;;;;;5.50;4.90;;;;;;100305.33;;;;102973;1331;22585;-36
2022/06/25 00:49:59;;;;;;;6.70;4.80;;;;;;100306.42;;;;103006;1323;24581;-36
2022/06/25 00:52:35;;;;;;;6.30;5.20;;;;;;100302.38;;;;102970;1321;23626;-37
2022/06/25 00:55:11;;;;;;;6.10;5.20;;;;;;100299.54;;;;102714;1318;341345;-37
2022/06/25 00:57:45;;;;;;;5.50;4.90;;;;;;100301.98;;;;103008;1326;24557;-37
2022/06/25 01:00:19;;;;;;;5.60;4.90;;;;;;100304.75;;;;103009;1331;22665;-37
2022/06/25 01:02:51;;;;;;;6.20;4.90;;;;;;100306.46;;;;102965;1323;24295;-37
2022/06/25 01:05:23;;;;;;;5.50;4.80;;;;;;100301.35;;;;102951;1331;22597;-37
2022/06/25 01:07:56;;;;;;;5.90;4.80;;;;;;100301.45;;;;102983;1323;24564;-37
2022/06/25 01:10:31;;;;;;;6.00;4.80;;;;;;100300.38;;;;102960;1332;24273;-36
2022/06/25 01:13:04;;;;;;;5.40;4.60;;;;;;100304.30;;;;102965;1323;24330;-36
2022/06/25 01:15:36;;;;;;;5.90;4.90;;;;;;100304.20;;;;102957;1319;22594;-37
2022/06/25 01:18:09;;;;;;;5.60;4.90;;;;;;100301.98;;;;102961;1323;25280;-37
2022/06/25 01:20:43;;;;;;;6.50;5.50;;;;;;100303.59;;;;102976;1331;24191;-37
2022/06/25 01:23:17;;;;;;;5.80;5.00;;;;;;100306.15;;;;103019;1322;25363;-37
2022/06/25 01:25:49;;;;;;;6.30;5.50;;;;;;100305.37;;;;102971;1327;22578;-37
2022/06/25 01:28:22;;;;;;;6.60;5.00;;;;;;100301.67;;;;102954;1328;22606;-36
2022/06/25 01:30:54;;;;;;;5.40;4.70;;;;;;100299.46;;;;102964;1327;22584;-36
2022/06/25 01:33:29;;;;;;;5.90;5.10;;;;;;100298.37;;;;102982;1329;23817;-37
2022/06/25 01:36:01;;;;;;;6.70;5.20;;;;;;100297.13;;;;102934;1323;24586;-37
2022/06/25 01:38:34;;;;;;;6.90;5.20;;;;;;100296.07;;;;102952;1325;22596;-37
2022/06/25 01:41:07;;;;;;;7.10;5.20;;;;;;100295.54;;;;102981;1329;23375;-37
2022/06/25 01:43:39;;;;;;;6.10;5.40;;;;;;100295.39;;;;102986;1323;24424;-37
2022/06/25 01:46:12;;;;;;;6.60;5.00;;;;;;100297.31;;;;103014;1323;24424;-36
2022/06/25 01:48:44;;;;;;;5.60;4.80;;;;;;100294.93;;;;102963;1322;24467;-36
2022/06/25 01:51:17;;;;;;;5.70;4.70;;;;;;100292.36;;;;102972;1331;22628;-36
2022/06/25 01:53:50;;;;;;;;;;;;;;100293.69;;;;102984;1327;22689;-36
2022/06/25 01:56:23;;;;;;;5.00;4.50;;;;;;100295.59;;;;102976;1319;22709;-36
2022/06/25 01:58:56;;;;;;;6.20;5.30;;;;;;100296.61;;;;103005;1323;22710;-37
2022/06/25 02:01:29;;;;;;;6.00;4.80;;;;;;100299.63;;;;102977;1331;22588;-37
2022/06/25 02:04:01;;;;;;;5.50;4.80;;;;;;100307.21;;;;102947;1329;24188;-37
2022/06/25 02:06:33;;;;;;;5.70;5.00;;;;;;100309.46;;;;102951;1327;24303;-37
2022/06/25 02:09:06;;;;;;;6.70;5.00;;;;;;100310.54;;;;102942;1323;25226;-37
2022/06/25 02:11:40;;;;;;;6.00;5.40;;;;;;100309.46;;;;103001;1328;22701;-36
2022/06/25 02:14:12;;;;;;;6.80;5.10;;;;;;100309.50;;;;102957;1331;22573;-37
2022/06/25 02:16:44;;;;;;;6.70;5.40;;;;;;100311.41;;;;102975;1322;22596;-37
2022/06/25 02:19:16;;;;;;;5.80;5.20;;;;;;100308.39;;;;102986;1322;25889;-36
2022/06/25 02:21:49;;;;;;;6.30;5.20;;;;;;100311.19;;;;102984;1320;22749;-36
2022/06/25 02:24:22;;;;;;;6.70;5.50;;;;;;100311.18;;;;103005;1327;22608;-36
2022/06/25 02:26:54;;;;;;;6.20;5.00;;;;;;100311.92;;;;102960;1319;22576;-37
2022/06/25 02:29:26;;;;;;;5.90;4.80;;;;;;100313.08;;;;102979;1328;22680;-37
2022/06/25 02:32:00;;;;;;;6.80;4.90;;;;;;100313.45;;;;103011;1326;22577;-36
2022/06/25 02:34:32;;;;;;;5.60;5.00;;;;;;100314.48;;;;102974;1331;25414;-36
2022/06/25 02:37:06;;;;;;;6.80;5.30;;;;;;100313.93;;;;102983;1323;22576;-37
2022/06/25 02:39:40;;;;;;;6.00;5.30;;;;;;100318.70;;;;102972;1331;22586;-36
2022/06/25 02:42:12;;;;;;;5.80;4.80;;;;;;100319.00;;;;102977;1326;24220;-36
2022/06/25 02:44:45;;;;;;;6.00;5.30;;;;;;100320.06;;;;103005;1332;24229;-36
2022/06/25 02:47:17;;;;;;;5.80;5.20;;;;;;100318.24;;;;102965;1331;22612;-37
2022/06/25 02:49:50;;;;;;;5.90;4.90;;;;;;100319.42;;;;102994;1323;22594;-37
2022/06/25 02:52:22;;;;;;;;;;;;;;100314.63;;;;102974;1319;22656;-37
2022/06/25 02:54:54;;;;;;;8.80;5.50;;;;;;100313.45;;;;102971;1319;22555;-36
2022/06/25 03:00:17;;;;;;;6.90;5.60;;;;;;100312.94;;;;102976;1331;24194;-36
2022/06/25 03:02:49;;;;;;;5.80;5.10;;;;;;100313.01;;;;103052;1328;25887;-36
2022/06/25 03:05:22;;;;;;;6.00;5.00;;;;;;100312.84;;;;102990;1322;24363;-36
2022/06/25 03:07:54;;;;;;;5.70;5.10;;;;;;100309.82;;;;103002;1328;26468;-36
2022/06/25 03:10:26;;;;;;;6.00;5.00;;;;;;100310.35;;;;102964;1331;23175;-36
2022/06/25 03:12:58;;;;;;;6.40;4.90;;;;;;100311.95;;;;102966;1327;22596;-37
2022/06/25 03:15:31;;;;;;;5.70;5.00;;;;;;100309.26;;;;102949;1331;22570;-36
2022/06/25 03:18:06;;;;;;;6.80;5.00;;;;;;100306.09;;;;102977;1320;22572;-37
2022/06/25 03:20:38;;;;;;;6.10;4.80;;;;;;100307.32;;;;102978;1329;22597;-37
2022/06/25 03:23:11;;;;;;;6.50;4.90;;;;;;100308.45;;;;102981;1325;24413;-36
2022/06/25 03:25:43;;;;;;;6.10;4.80;;;;;;100307.36;;;;103004;1319;24113;-37
2022/06/25 03:28:15;;;;;;;6.30;4.90;;;;;;100308.54;;;;102995;1328;22689;-36
2022/06/25 03:30:48;;;;;;;5.60;4.90;;;;;;100313.28;;;;102965;1325;24227;-36
2022/06/25 03:33:21;;;;;;;5.80;5.10;;;;;;100315.30;;;;102957;1331;22653;-36
2022/06/25 03:35:53;;;;;;;5.40;4.80;;;;;;100317.39;;;;102965;1326;24537;-36
2022/06/25 03:38:25;;;;;;;5.60;4.60;;;;;;100319.46;;;;102992;1331;22816;-37
2022/06/25 03:43:44;;;;;;;6.90;4.80;;;;;;100321.42;;;;103013;1326;22591;-36
2022/06/25 03:46:16;;;;;;;5.40;4.80;;;;;;100320.80;;;;103019;1325;24388;-37
2022/06/25 03:48:48;;;;;;;5.10;4.20;;;;;;100324.91;;;;102965;1323;24517;-36
2022/06/25 03:51:21;;;;;;;5.80;4.70;;;;;;100327.36;;;;102957;1332;25462;-36
2022/06/25 03:53:53;;;;;;;6.10;4.80;;;;;;100325.48;;;;102999;1322;26533;-37
2022/06/25 03:56:28;;;;;;;5.30;4.50;;;;;;100331.23;;;;102961;1331;22572;-36
2022/06/25 03:59:02;;;;;;;6.10;4.60;;;;;;100330.20;;;;103007;1323;25229;-36
2022/06/25 04:01:35;;;;;;;5.90;5.00;;;;;;100330.74;;;;102964;1325;25217;-36
2022/06/25 04:04:09;;;;;;;6.80;4.70;;;;;;100328.95;;;;102985;1328;25352;-36
2022/06/25 04:06:41;;;;;;;5.30;4.30;;;;;;100333.38;;;;102991;1325;22577;-36
2022/06/25 04:09:14;;;;;;;6.60;5.20;;;;;;100337.45;;;;102967;1329;25414;-36
2022/06/25 04:11:46;;;;;;;5.80;4.90;;;;;;100342.67;;;;102953;1322;22933;-36
2022/06/25 04:14:18;;;;;;;5.80;4.70;;;;;;100337.73;;;;102981;1335;22854;-36
2022/06/25 04:16:51;;;;;;;7.20;4.50;;;;;;100343.81;;;;102998;1320;24378;-37
2022/06/25 04:19:24;;;;;;;5.40;4.60;;;;;;100343.34;;;;103019;1323;24482;-37
2022/06/25 04:21:56;;;;;;;6.20;4.90;;;;;;100343.43;;;;102999;1327;22594;-36
2022/06/25 04:24:28;;;;;;;5.50;4.40;;;;;;100345.30;;;;102963;1332;22803;-37
2022/06/25 04:27:01;;;;;;;5.30;4.40;;;;;;100344.97;;;;103003;1327;22614;-36
2022/06/25 04:29:34;;;;;;;6.70;4.40;;;;;;100349.45;;;;102961;1329;24220;-37
2022/06/25 04:32:08;;;;;;;4.80;4.30;;;;;;100348.14;;;;102999;1322;23975;-36
2022/06/25 04:34:40;;;;;;;4.90;4.20;;;;;;100350.55;;;;103011;1326;22575;-36
2022/06/25 04:37:13;;;;;;;5.40;4.50;;;;;;100349.44;;;;102951;1331;25563;-36
2022/06/25 04:39:46;;;;;;;5.50;4.80;;;;;;100351.55;;;;102989;1329;24229;-37
2022/06/25 04:42:18;;;;;;;5.50;4.40;;;;;;100349.06;;;;102950;1323;26467;-37
2022/06/25 04:44:54;;;;;;;5.90;4.60;;;;;;100350.71;;;;102986;1327;22688;-37
2022/06/25 04:47:27;;;;;;;6.50;4.80;;;;;;100349.38;;;;103020;1330;24304;-37
2022/06/25 04:49:59;;;;;;;5.10;4.30;;;;;;100351.70;;;;102954;1326;25438;-38
2022/06/25 04:52:33;;;;;;;5.30;4.20;;;;;;100353.15;;;;102993;1324;22584;-37
2022/06/25 04:55:06;;;;;;;5.70;4.40;;;;;;100352.52;;;;102994;1330;24192;-37
2022/06/25 04:57:37;;;;;;;;;;;;;;100356.01;;;;102998;1329;22571;-37
2022/06/25 05:00:12;;;;;;;5.00;4.40;;;;;;100353.67;;;;102965;1331;22574;-37
2022/06/25 05:02:45;;;;;;;5.30;4.70;;;;;;100351.73;;;;102939;1324;25349;-37
2022/06/25 05:05:17;;;;;;;5.60;4.30;;;;;;100356.69;;;;103001;1331;22642;-37
2022/06/25 05:07:50;;;;;;;5.50;4.50;;;;;;100361.34;;;;102966;1325;22573;-37
2022/06/25 05:10:22;;;;;;;5.30;4.70;;;;;;100361.98;;;;102955;1331;22676;-37
2022/06/25 05:13:13;;;;;;;5.30;4.30;;;;;;100364.76;;;;102986;1323;24711;-37
2022/06/25 05:15:46;;;;;;;6.50;4.70;;;;;;100365.94;;;;103004;1329;23495;-37
2022/06/25 05:18:18;;;;;;;5.30;4.50;;;;;;100365.63;;;;102986;1327;22580;-37
2022/06/25 05:20:50;;;;;;;6.20;4.50;;;;;;100368.16;;;;102988;1328;22812;-37
2022/06/25 05:23:22;;;;;;;6.10;4.60;;;;;;100372.42;;;;103002;1332;22557;-37
2022/06/25 05:25:54;;;;;;;5.70;4.90;;;;;;100375.59;;;;102993;1331;22568;-37
2022/06/25 05:28:26;;;;;;;6.00;4.30;;;;;;100375.58;;;;102989;1323;24352;-38
2022/06/25 05:30:59;;;;;;;6.70;4.70;;;;;;100381.11;;;;102987;1325;23940;-38
2022/06/25 05:33:31;;;;;;;6.00;4.40;;;;;;100379.52;;;;102986;1323;24316;-38
2022/06/25 05:36:04;;;;;;;6.30;4.80;;;;;;100374.69;;;;103038;1323;22594;-38
2022/06/25 05:38:35;;;;;;;;;;;;;;100378.96;;;;103004;1335;22570;-38
2022/06/25 05:41:08;;;;;;;5.40;4.50;;;;;;100379.05;;;;102960;1329;22886;-37
2022/06/25 05:43:43;;;;;;;5.40;4.50;;;;;;100380.36;;;;103012;1331;22584;-37
2022/06/25 05:46:16;;;;;;;5.40;4.40;;;;;;100382.67;;;;102976;1323;25358;-37
2022/06/25 05:48:48;;;;;;;6.10;4.60;;;;;;100380.67;;;;102987;1331;22593;-37
2022/06/25 05:51:21;;;;;;;5.20;4.50;;;;;;100378.25;;;;102985;1323;22545;-38
2022/06/25 05:53:53;;;;;;;5.90;4.80;;;;;;100377.77;;;;102972;1320;24442;-38
2022/06/25 05:56:25;;;;;;;5.40;4.60;;;;;;100375.98;;;;102975;1328;22579;-38
2022/06/25 05:58:57;;;;;;;5.90;4.40;;;;;;100372.84;;;;102969;1331;25904;-37
2022/06/25 06:01:30;;;;;;;5.50;4.60;;;;;;100371.63;;;;102980;1329;22584;-38
2022/06/25 06:04:05;;;;;;;5.30;4.80;;;;;;100370.92;;;;102989;1331;22621;-37
2022/06/25 06:06:38;;;;;;;6.20;4.90;;;;;;100371.11;;;;102980;1331;22601;-37
2022/06/25 06:09:10;;;;;;;5.80;4.40;;;;;;100374.05;;;;102973;1327;22677;-38
2022/06/25 06:11:45;;;;;;;5.40;4.40;;;;;;100374.84;;;;102988;1323;22605;-38
2022/06/25 06:14:17;;;;;;;6.10;4.50;;;;;;100374.03;;;;103034;1323;22598;-38
2022/06/25 06:16:49;;;;;;;6.40;4.90;;;;;;100374.16;;;;102984;1327;24325;-38
2022/06/25 06:19:22;;;;;;;5.60;4.80;;;;;;100375.54;;;;102979;1325;24464;-38
2022/06/25 06:21:54;;;;;;;7.00;5.10;;;;;;100373.45;;;;103000;1326;24490;-37
2022/06/25 06:24:27;;;;;;;5.00;4.50;;;;;;100372.20;;;;102974;1323;24318;-37
2022/06/25 06:27:00;;;;;;;6.10;4.50;;;;;;100371.61;;;;102983;1329;22592;-38
2022/06/25 06:29:32;;;;;;;5.10;4.10;;;;;;100372.08;;;;102951;1325;22607;-38
2022/06/25 06:32:06;;;;;;;6.30;4.60;;;;;;100375.42;;;;102986;1331;22569;-38
2022/06/25 06:34:38;;;;;;;6.80;4.50;;;;;;100375.40;;;;102979;1330;24301;-38
2022/06/25 06:37:10;;;;;;;5.30;4.40;;;;;;100372.80;;;;102977;1328;25334;-38
2022/06/25 06:39:45;;;;;;;6.10;4.80;;;;;;100371.25;;;;102945;1332;22603;-38
2022/06/25 06:42:20;;;;;;;5.90;4.30;;;;;;100370.83;;;;102980;1331;22583;-38
2022/06/25 06:44:53;;;;;;;5.40;4.40;;;;;;100373.58;;;;102979;1323;25885;-38
2022/06/25 06:47:26;;;;;;;5.70;4.40;;;;;;100372.48;;;;103003;1331;22538;-38
2022/06/25 06:49:58;;;;;;;5.40;4.10;;;;;;100373.73;;;;103015;1326;25827;-38
2022/06/25 06:52:31;;;;;;;5.20;4.60;;;;;;100377.48;;;;102986;1327;23982;-37
2022/06/25 06:55:04;;;;;;;5.80;4.70;;;;;;100378.95;;;;102986;1320;23929;-35
2022/06/25 06:57:37;;;;;;;5.90;4.60;;;;;;100378.73;;;;102982;1331;22683;-37
2022/06/25 07:00:14;;;;;;;5.30;4.40;;;;;;100377.44;;;;103006;1321;22599;-37
2022/06/25 07:02:46;;;;;;;5.10;4.50;;;;;;100377.64;;;;102989;1323;24411;-37
2022/06/25 07:05:19;;;;;;;5.40;4.40;;;;;;100375.97;;;;102961;1328;22579;-37
2022/06/25 07:07:51;;;;;;;5.30;4.50;;;;;;100376.08;;;;102992;1328;23183;-37
2022/06/25 07:10:23;;;;;;;5.20;4.40;;;;;;100376.57;;;;102942;1331;22876;-37
2022/06/25 07:12:55;;;;;;;5.70;4.50;;;;;;100380.79;;;;102996;1331;22577;-37
2022/06/25 07:15:28;;;;;;;5.90;4.50;;;;;;100382.66;;;;102969;1327;25223;-37
2022/06/25 07:18:00;;;;;;;6.30;4.20;;;;;;100384.27;;;;103011;1326;22581;-37
2022/06/25 07:20:34;;;;;;;5.20;4.40;;;;;;100379.90;;;;102987;1332;22576;-37
2022/06/25 07:23:07;;;;;;;5.60;4.00;;;;;;100383.58;;;;102974;1331;22651;-37
2022/06/25 07:25:39;;;;;;;6.60;4.40;;;;;;100381.17;;;;102999;1327;22602;-35
2022/06/25 07:28:11;;;;;;;5.50;4.00;;;;;;100380.17;;;;102979;1330;22864;-35
2022/06/25 07:30:44;;;;;;;5.20;3.90;;;;;;100383.41;;;;102999;1327;25840;-36
2022/06/25 07:33:16;;;;;;;5.60;4.10;;;;;;100378.00;;;;102945;1329;22641;-36
2022/06/25 07:35:49;;;;;;;6.20;4.30;;;;;;100381.05;;;;102961;1325;24443;-36
2022/06/25 07:38:22;;;;;;;5.00;4.00;;;;;;100382.40;;;;102931;1324;25878;-36
2022/06/25 07:40:53;;;;;;;;;;;;;;100385.53;;;;102852;1325;24490;-35
2022/06/25 07:43:27;;;;;;;5.90;3.80;;;;;;100385.02;;;;102719;1328;151446;-34
2022/06/25 07:46:00;;;;;;;5.10;4.00;;;;;;100388.48;;;;102586;1330;22817;-34
2022/06/25 07:54:38;;;;;;;4.60;3.30;;;;;;100389.83;;;;101244;1357;557096;-37
2022/06/25 07:58:19;;;;;;;5.20;3.80;;;;;;100381.29;;;;101007;1359;556335;-38
2022/06/25 08:00:52;;;;;;;5.10;3.50;;;;;;100378.73;;;;103037;1334;25319;-39
2022/06/25 08:03:25;;;;;;;6.10;4.00;;;;;;100378.61;;;;102912;1333;25302;-38
2022/06/25 08:05:58;;;;;;;4.90;4.00;;;;;;100374.91;;;;102884;1333;24286;-38
2022/06/25 08:08:29;;;;;;;;;;;;;;100375.95;;;;102837;1344;22591;-38
2022/06/25 08:11:01;;;;;;;5.30;3.70;;;;;;100378.73;;;;102692;1339;277517;-37
2022/06/25 08:13:35;;;;;;;4.30;3.50;;;;;;100374.98;;;;102933;1332;22891;-37
2022/06/25 08:16:15;;;;;;;6.40;4.00;;;;;;100374.30;;;;102924;1332;25066;-37
2022/06/25 08:18:50;;;;;;;5.90;3.80;;;;;;100373.41;;;;103051;1332;22586;-38
2022/06/25 08:21:28;;;;;;;5.70;4.10;;;;;;100371.20;;;;103097;1332;23109;-37
2022/06/25 08:24:02;;;;;;;5.40;4.00;;;;;;100371.29;;;;103385;1337;22579;-37
2022/06/25 08:26:35;;;;;;;6.80;4.10;;;;;;100374.31;;;;103068;1339;22589;-37
2022/06/25 08:29:07;;;;;;;5.40;4.00;;;;;;100371.05;;;;103017;1332;24463;-37
2022/06/25 08:31:40;;;;;;;4.80;3.50;;;;;;100372.30;;;;103129;1332;22608;-37
2022/06/25 08:34:12;;;;;;;5.00;3.90;;;;;;100371.99;;;;103043;1332;24109;-37
2022/06/25 08:36:47;;;;;;;5.30;3.90;;;;;;100365.98;;;;103063;1332;22591;-38
2022/06/25 08:39:20;;;;;;;7.00;4.10;;;;;;100372.23;;;;103058;1342;22622;-38
2022/06/25 08:41:55;;;;;;;5.20;3.80;;;;;;100374.46;;;;103239;1341;24207;-38
2022/06/25 08:44:27;;;;;;;5.60;3.80;;;;;;100371.08;;;;103246;1329;24223;-38
2022/06/25 08:47:00;;;;;;;5.10;3.60;;;;;;100374.80;;;;103272;1329;24215;-38
2022/06/25 08:49:36;;;;;;;6.20;4.10;;;;;;100363.83;;;;103200;1339;24173;-38
2022/06/25 08:52:11;;;;;;;5.20;3.80;;;;;;100369.45;;;;103224;1335;22586;-38
2022/06/25 08:54:44;;;;;;;5.70;3.70;;;;;;100371.21;;;;103212;1329;25257;-38
2022/06/25 08:57:16;;;;;;;5.90;3.70;;;;;;100369.51;;;;103242;1341;22605;-38
2022/06/25 08:59:48;;;;;;;5.50;3.20;;;;;;100364.56;;;;103268;1330;22828;-38
2022/06/25 09:02:20;;;;;;;6.30;3.50;;;;;;100369.91;;;;103266;1329;25238;-37
2022/06/25 09:04:55;;;;;;;5.80;3.50;;;;;;100370.02;;;;103248;1329;25407;-38
2022/06/25 09:07:27;;;;;;;4.70;3.60;;;;;;100372.83;;;;103236;1329;22591;-37
2022/06/25 09:09:59;;;;;;;5.20;3.70;;;;;;100372.92;;;;103979;1326;22146;-37
2022/06/25 09:12:31;;;;;;;6.30;4.00;;;;;;100366.80;;;;103786;1330;22636;-37
2022/06/25 09:15:20;;;;;;;4.90;3.70;;;;;;100364.91;;;;103987;1323;24519;-38
2022/06/25 09:17:57;;;;;;;7.10;4.00;;;;;;100363.73;;;;104003;1330;22588;-37
2022/06/25 09:20:31;;;;;;;5.50;3.90;;;;;;100364.48;;;;103976;1324;25547;-37
2022/06/25 09:23:08;;;;;;;4.90;3.90;;;;;;100356.31;;;;103987;1324;22587;-37
2022/06/25 09:25:41;;;;;;;5.60;3.90;;;;;;100355.64;;;;103973;1331;22581;-37
2022/06/25 09:28:31;;;;;;;5.10;4.00;;;;;;100356.52;;;;103977;1324;24340;-37
2022/06/25 09:31:07;;;;;;;5.40;3.70;;;;;;100362.14;;;;104003;1333;22604;-37
2022/06/25 09:33:41;;;;;;;4.80;3.90;;;;;;100366.20;;;;103986;1324;22592;-37
2022/06/25 09:36:14;;;;;;;4.90;4.10;;;;;;100362.39;;;;103986;1324;22949;-37
2022/06/25 09:38:52;;;;;;;4.60;3.60;;;;;;100362.71;;;;103984;1324;22616;-38
2022/06/25 09:41:26;;;;;;;4.60;3.50;;;;;;100351.30;;;;104015;1324;24287;-38
2022/06/25 09:44:00;;;;;;;4.60;3.80;;;;;;100360.23;;;;104005;1324;22586;-37
2022/06/25 09:46:33;;;;;;;6.60;3.70;;;;;;100358.77;;;;103990;1330;22607;-37
2022/06/25 09:49:24;;;;;;;4.90;3.60;;;;;;100360.13;;;;103977;1326;23887;-37
2022/06/25 09:52:16;;;;;;;5.20;3.50;;;;;;100360.03;;;;104001;1334;23606;-37
2022/06/25 09:54:51;;;;;;;4.80;3.60;;;;;;100355.82;;;;103993;1324;24203;-37
2022/06/25 09:57:24;;;;;;;4.70;3.80;;;;;;100354.70;;;;103988;1324;22697;-36
2022/06/25 10:00:01;;;;;;;7.00;4.90;;;;;;100361.75;;;;103983;1324;25359;-38
2022/06/25 10:02:34;;;;;;;6.70;4.50;;;;;;100362.85;;;;103987;1324;22616;-38
2022/06/25 10:05:12;;;;;;;5.90;4.20;;;;;;100361.87;;;;103960;1329;22598;-37
2022/06/25 10:10:39;;;;;;;7.00;4.30;;;;;;100363.05;;;;103997;1324;25210;-38
2022/06/25 10:13:14;;;;;;;5.70;4.20;;;;;;100360.24;;;;103975;1334;22566;-38
2022/06/25 10:15:47;;;;;;;6.40;4.40;;;;;;100358.41;;;;103990;1324;25914;-38
2022/06/25 10:18:21;;;;;;;6.30;4.10;;;;;;100356.20;;;;103993;1334;22988;-37
2022/06/25 10:20:53;;;;;;;6.40;4.70;;;;;;100350.86;;;;103982;1330;22573;-37
2022/06/25 10:23:27;;;;;;;5.00;4.50;;;;;;100355.70;;;;103955;1324;25963;-37
2022/06/25 10:26:00;;;;;;;4.70;4.20;;;;;;100350.46;;;;103955;1334;22794;-37
2022/06/25 10:28:35;;;;;;;5.60;4.00;;;;;;100341.92;;;;103952;1330;22582;-37
2022/06/25 10:31:14;;;;;;;5.70;3.80;;;;;;100338.23;;;;103953;1330;23751;-36
2022/06/25 10:33:59;;;;;;;6.30;4.20;;;;;;100327.02;;;;104009;1331;22611;-38
2022/06/25 10:36:48;;;;;;;5.10;4.20;;;;;;100335.14;;;;103967;1333;22598;-38
2022/06/25 10:39:39;;;;;;;5.70;3.90;;;;;;100339.42;;;;103978;1334;22579;-37
2022/06/25 10:45:48;;;;;;;5.70;3.90;;;;;;100332.89;;;;104005;1324;22609;-37
2022/06/25 10:48:23;;;;;;;5.20;3.80;;;;;;100332.50;;;;103568;1326;22672;-37
2022/06/25 10:50:58;;;;;;;5.00;3.40;;;;;;100326.98;;;;103960;1323;27190;-37
2022/06/25 10:53:34;;;;;;;5.80;3.60;;;;;;100318.83;;;;103978;1329;24322;-36
2022/06/25 10:56:26;;;;;;;5.30;3.30;;;;;;100321.45;;;;103841;1324;25239;-36
2022/06/25 11:01:32;;;;;;;4.20;3.20;;;;;;100317.84;;;;100406;1366;560004;-36
2022/06/25 11:04:11;;;;;;;5.10;3.30;;;;;;100329.17;;;;102995;1334;24206;-36
2022/06/25 11:06:40;;;;;;;5.10;2.90;;;;;;100327.27;;;;102901;1333;25280;-40
2022/06/25 11:09:21;;;;;;;5.20;3.10;;;;;;100320.55;;;;102925;1335;24247;-36
2022/06/25 11:11:51;;;;;;;4.80;3.10;;;;;;100315.79;;;;102987;1335;22596;-35
2022/06/25 11:14:24;;;;;;;5.50;3.20;;;;;;100322.52;;;;102890;1329;252458;-36
2022/06/25 11:17:08;;;;;;;4.20;2.90;;;;;;100318.20;;;;103255;1333;22608;-36
2022/06/25 11:19:40;;;;;;;4.70;2.90;;;;;;100306.38;;;;103098;1329;22577;-35
2022/06/25 11:22:09;;;;;;;5.20;3.00;;;;;;100307.06;;;;103197;1329;22661;-36
2022/06/25 11:28:47;;;;;;;4.30;2.80;;;;;;100303.77;;;;103182;1333;22708;-36
2022/06/25 11:30:24;;;;;;;4.20;3.00;;;;;;100311.60;;;;103134;1329;22688;-35
2022/06/25 11:32:57;;;;;;;4.00;2.70;;;;;;100314.75;;;;103199;1335;22600;-35
2022/06/25 11:35:39;;;;;;;4.40;2.90;;;;;;100321.31;;;;103200;1329;24336;-37
2022/06/25 11:38:17;;;;;;;3.80;2.80;;;;;;100315.69;;;;103224;1330;22611;-39
2022/06/25 11:40:51;;;;;;;5.30;2.90;;;;;;100313.79;;;;103153;1334;23203;-35
2022/06/25 11:43:20;;;;;;;4.30;2.90;;;;;;100305.38;;;;103215;1329;22616;-37
2022/06/25 11:45:52;;;;;;;3.80;2.80;;;;;;100302.34;;;;103173;1334;23838;-35
2022/06/25 11:48:25;;;;;;;4.00;2.70;;;;;;100305.11;;;;103206;1330;22618;-35
2022/06/25 11:50:56;;;;;;;3.90;2.60;;;;;;100307.86;;;;103210;1333;22612;-35
2022/06/25 11:53:29;;;;;;;3.80;2.50;;;;;;100304.14;;;;104430;1320;22586;-35
2022/06/25 11:56:00;;;;;;;4.10;2.60;;;;;;100306.90;;;;104428;1323;22809;-37
2022/06/25 11:58:33;;;;;;;4.50;2.70;;;;;;100311.04;;;;104442;1323;22580;-36
2022/06/25 12:01:06;;;;;;;3.90;2.40;;;;;;100305.98;;;;104431;1319;35278;-43
2022/06/25 12:03:40;;;;;;;4.40;2.70;;;;;;100303.30;;;;104188;1320;35733;-41
2022/06/25 12:06:13;;;;;;;4.50;2.40;;;;;;100303.91;;;;104156;1319;34144;-45
2022/06/25 12:08:42;;;;;;;4.90;2.70;;;;;;100308.36;;;;104129;1319;34979;-45
2022/06/25 12:11:13;;;;;;;4.80;2.50;;;;;;100308.60;;;;104189;1320;34978;-44
2022/06/25 12:13:43;;;;;;;4.40;2.70;;;;;;100307.27;;;;104168;1321;34944;-44
2022/06/25 12:16:15;;;;;;;4.50;2.40;;;;;;100313.14;;;;104197;1320;34995;-44
2022/06/25 12:18:47;;;;;;;5.90;2.40;;;;;;100307.10;;;;104123;1320;34833;-44
2022/06/25 12:21:20;;;;;;;4.50;2.60;;;;;;100307.31;;;;104179;1320;34831;-45
2022/06/25 12:23:54;;;;;;;3.70;2.30;;;;;;100305.51;;;;104182;1320;34453;-45
2022/06/25 12:26:31;;;;;;;4.20;2.60;;;;;;100300.27;;;;103799;1320;34926;-45
2022/06/25 12:29:14;;;;;;;4.50;2.50;;;;;;100301.91;;;;104105;1320;34076;-44
2022/06/25 12:31:53;;;;;;;3.80;2.20;;;;;;100301.29;;;;104116;1320;35036;-45
2022/06/25 12:34:25;;;;;;;3.10;1.90;;;;;;100309.17;;;;103952;1323;34805;-46
2022/06/25 12:36:55;;;;;;;3.50;2.10;;;;;;100305.33;;;;104205;1320;34916;-45
2022/06/25 12:39:49;;;;;;;3.80;2.50;;;;;;100305.64;;;;104167;1320;35533;-47
2022/06/25 12:42:21;;;;;;;4.00;2.40;;;;;;100299.23;;;;104092;1320;35329;-46
2022/06/25 12:44:52;;;;;;;4.00;2.50;;;;;;100300.07;;;;104152;1320;33438;-45
2022/06/25 12:47:21;;;;;;;4.50;2.70;;;;;;100294.06;;;;104163;1320;34801;-48
2022/06/25 12:49:52;;;;;;;3.90;2.70;;;;;;100294.10;;;;104155;1321;33992;-47
2022/06/25 12:52:26;;;;;;;4.70;2.70;;;;;;100290.73;;;;104187;1320;35045;-45
2022/06/25 12:54:57;;;;;;;4.80;3.70;;;;;;100304.20;;;;104182;1320;33538;-48
2022/06/25 12:57:29;;;;;;;4.80;2.90;;;;;;100308.64;;;;104115;1320;35123;-44
2022/06/25 13:00:01;;;;;;;5.10;3.50;;;;;;100311.83;;;;104161;1320;35044;-43
2022/06/25 13:02:32;;;;;;;5.00;3.60;;;;;;100298.31;;;;104167;1320;34905;-43
2022/06/25 13:05:02;;;;;;;6.30;3.90;;;;;;100298.20;;;;104141;1320;33366;-44
2022/06/25 13:07:31;;;;;;;8.40;4.20;;;;;;100294.08;;;;104029;1320;35204;-44
2022/06/25 13:10:02;;;;;;;4.90;3.90;;;;;;100286.02;;;;104152;1320;34336;-45
2022/06/25 13:12:33;;;;;;;4.70;3.90;;;;;;100285.71;;;;104184;1320;34447;-47
2022/06/25 13:15:02;;;;;;;5.10;4.10;;;;;;100287.30;;;;104145;1320;34441;-45
2022/06/25 13:17:31;;;;;;;5.40;4.30;;;;;;100283.52;;;;103886;1320;34832;-46
2022/06/25 13:20:00;;;;;;;5.00;4.00;;;;;;100285.27;;;;104161;1320;34697;-45
2022/06/25 13:22:29;;;;;;;5.30;4.00;;;;;;100280.84;;;;104178;1320;34459;-47
2022/06/25 13:24:59;;;;;;;6.40;4.20;;;;;;100286.05;;;;104165;1320;35037;-44
2022/06/25 13:27:29;;;;;;;5.70;3.70;;;;;;100286.04;;;;104122;1320;34675;-44
2022/06/25 13:30:01;;;;;;;4.80;4.30;;;;;;100290.52;;;;104145;1320;34668;-44
2022/06/25 13:32:30;;;;;;;5.20;4.30;;;;;;100291.30;;;;104144;1320;34409;-45
2022/06/25 13:35:00;;;;;;;5.30;4.50;;;;;;100292.36;;;;104176;1320;34607;-44
2022/06/25 13:37:34;;;;;;;5.10;4.00;;;;;;100295.30;;;;104193;1320;35052;-44
2022/06/25 13:40:06;;;;;;;4.90;4.20;;;;;;100287.02;;;;104146;1320;35125;-44
2022/06/25 13:42:35;;;;;;;5.30;4.00;;;;;;100292.78;;;;104124;1320;35195;-45
2022/06/25 13:45:09;;;;;;;7.90;4.20;;;;;;100285.77;;;;104171;1320;34442;-44
2022/06/25 13:47:38;;;;;;;5.60;4.30;;;;;;100287.07;;;;104202;1320;34828;-43